sensor_id;sensor_type;location;lat;lon;timestamp;temperature;humidity
15143;DHT22;7672;50.834;6.286;2024-03-29T00:01:34;11.90;99.90
15143;DHT22;7672;50.834;6.286;2024-03-29T00:04:00;11.90;99.90
15143;DHT22;7672;50.834;6.286;2024-03-29T00:06:26;11.90;99.90
15143;DHT22;7672;50.834;6.286;2024-03-29T00:08:52;11.90;99.90
15143;DHT22;7672;50.834;6.286;2024-03-29T00:11:18;11.90;99.90
15143;DHT22;7672;50.834;6.286;2024-03-29T00:13:44;11.90;99.90
15143;DHT22;7672;50.834;6.286;2024-03-29T00:16:11;11.90;99.90
15143;DHT22;7672;50.834;6.286;2024-03-29T00:18:37;11.80;99.90
15143;DHT22;7672;50.834;6.286;2024-03-29T00:21:04;11.80;99.90
15143;DHT22;7672;50.834;6.286;2024-03-29T00:23:30;11.90;99.90
15143;DHT22;7672;50.834;6.286;2024-03-29T00:25:56;11.80;99.90
15143;DHT22;7672;50.834;6.286;2024-03-29T00:28:24;11.80;99.90
15143;DHT22;7672;50.834;6.286;2024-03-29T00:30:50;11.80;99.90
15143;DHT22;7672;50.834;6.286;2024-03-29T00:33:16;11.80;99.90
15143;DHT22;7672;50.834;6.286;2024-03-29T00:35:44;11.80;99.90
15143;DHT22;7672;50.834;6.286;2024-03-29T00:38:10;11.80;99.90
15143;DHT22;7672;50.834;6.286;2024-03-29T00:40:37;11.90;99.90
15143;DHT22;7672;50.834;6.286;2024-03-29T00:43:03;11.90;99.90
15143;DHT22;7672;50.834;6.286;2024-03-29T00:45:29;11.90;99.90
15143;DHT22;7672;50.834;6.286;2024-03-29T00:47:55;11.90;99.90
15143;DHT22;7672;50.834;6.286;2024-03-29T00:50:21;11.90;99.90
15143;DHT22;7672;50.834;6.286;2024-03-29T00:52:47;11.90;99.90
15143;DHT22;7672;50.834;6.286;2024-03-29T00:55:14;11.90;99.90
15143;DHT22;7672;50.834;6.286;2024-03-29T00:57:40;11.90;99.90
15143;DHT22;7672;50.834;6.286;2024-03-29T01:00:07;12.00;99.90
15143;DHT22;7672;50.834;6.286;2024-03-29T01:02:35;12.00;99.90
15143;DHT22;7672;50.834;6.286;2024-03-29T01:05:02;12.00;99.90
15143;DHT22;7672;50.834;6.286;2024-03-29T01:07:29;12.00;99.90
15143;DHT22;7672;50.834;6.286;2024-03-29T01:09:55;12.00;99.90
15143;DHT22;7672;50.834;6.286;2024-03-29T01:12:21;12.10;99.90
15143;DHT22;7672;50.834;6.286;2024-03-29T01:14:47;12.10;99.90
15143;DHT22;7672;50.834;6.286;2024-03-29T01:17:14;12.10;99.90
15143;DHT22;7672;50.834;6.286;2024-03-29T01:19:40;12.10;99.90
15143;DHT22;7672;50.834;6.286;2024-03-29T01:22:06;12.10;99.90
15143;DHT22;7672;50.834;6.286;2024-03-29T01:24:34;12.20;99.90
15143;DHT22;7672;50.834;6.286;2024-03-29T01:27:00;12.20;99.90
15143;DHT22;7672;50.834;6.286;2024-03-29T01:29:26;12.20;99.90
15143;DHT22;7672;50.834;6.286;2024-03-29T01:31:53;12.30;99.90
15143;DHT22;7672;50.834;6.286;2024-03-29T01:34:19;12.30;99.90
15143;DHT22;7672;50.834;6.286;2024-03-29T01:36:45;12.30;99.90
15143;DHT22;7672;50.834;6.286;2024-03-29T01:39:11;12.40;99.90
15143;DHT22;7672;50.834;6.286;2024-03-29T01:41:40;12.40;99.90
15143;DHT22;7672;50.834;6.286;2024-03-29T01:44:06;12.40;99.90
15143;DHT22;7672;50.834;6.286;2024-03-29T01:46:35;12.40;99.90
15143;DHT22;7672;50.834;6.286;2024-03-29T01:49:02;12.50;99.90
15143;DHT22;7672;50.834;6.286;2024-03-29T01:51:31;12.50;99.90
15143;DHT22;7672;50.834;6.286;2024-03-29T01:54:01;12.60;99.90
15143;DHT22;7672;50.834;6.286;2024-03-29T01:56:27;12.60;99.90
15143;DHT22;7672;50.834;6.286;2024-03-29T01:58:55;12.60;99.90
15143;DHT22;7672;50.834;6.286;2024-03-29T02:01:24;12.70;99.90
15143;DHT22;7672;50.834;6.286;2024-03-29T02:03:52;12.70;99.90
15143;DHT22;7672;50.834;6.286;2024-03-29T02:06:19;12.70;99.90
15143;DHT22;7672;50.834;6.286;2024-03-29T02:08:48;12.80;99.90
15143;DHT22;7672;50.834;6.286;2024-03-29T02:11:17;12.80;99.90
15143;DHT22;7672;50.834;6.286;2024-03-29T02:13:44;12.80;99.90
15143;DHT22;7672;50.834;6.286;2024-03-29T02:16:11;12.90;99.90
15143;DHT22;7672;50.834;6.286;2024-03-29T02:18:37;12.90;99.90
15143;DHT22;7672;50.834;6.286;2024-03-29T02:21:03;12.90;99.90
15143;DHT22;7672;50.834;6.286;2024-03-29T02:23:30;12.90;99.90
15143;DHT22;7672;50.834;6.286;2024-03-29T02:25:58;13.00;99.90
15143;DHT22;7672;50.834;6.286;2024-03-29T02:28:25;13.00;99.90
15143;DHT22;7672;50.834;6.286;2024-03-29T02:30:51;13.00;99.90
15143;DHT22;7672;50.834;6.286;2024-03-29T02:33:17;13.00;99.90
15143;DHT22;7672;50.834;6.286;2024-03-29T02:35:43;13.00;99.90
15143;DHT22;7672;50.834;6.286;2024-03-29T02:38:09;13.00;99.90
15143;DHT22;7672;50.834;6.286;2024-03-29T02:40:35;13.00;99.90
15143;DHT22;7672;50.834;6.286;2024-03-29T02:43:01;13.00;99.90
15143;DHT22;7672;50.834;6.286;2024-03-29T02:45:27;13.00;99.90
15143;DHT22;7672;50.834;6.286;2024-03-29T02:47:53;13.00;99.90
15143;DHT22;7672;50.834;6.286;2024-03-29T02:50:19;13.00;99.90
15143;DHT22;7672;50.834;6.286;2024-03-29T02:52:45;13.00;99.90
15143;DHT22;7672;50.834;6.286;2024-03-29T02:55:11;13.00;99.90
15143;DHT22;7672;50.834;6.286;2024-03-29T02:57:38;12.90;99.90
15143;DHT22;7672;50.834;6.286;2024-03-29T03:00:08;12.90;99.90
15143;DHT22;7672;50.834;6.286;2024-03-29T03:02:41;12.90;99.90
15143;DHT22;7672;50.834;6.286;2024-03-29T03:05:07;12.80;99.90
15143;DHT22;7672;50.834;6.286;2024-03-29T03:07:34;12.80;99.90
15143;DHT22;7672;50.834;6.286;2024-03-29T03:10:20;12.80;99.90
15143;DHT22;7672;50.834;6.286;2024-03-29T03:13:05;12.80;99.90
15143;DHT22;7672;50.834;6.286;2024-03-29T03:15:31;12.70;99.90
15143;DHT22;7672;50.834;6.286;2024-03-29T03:17:57;12.70;99.90
15143;DHT22;7672;50.834;6.286;2024-03-29T03:20:23;12.60;99.90
15143;DHT22;7672;50.834;6.286;2024-03-29T03:22:53;12.60;99.90
15143;DHT22;7672;50.834;6.286;2024-03-29T03:25:21;12.60;99.90
15143;DHT22;7672;50.834;6.286;2024-03-29T03:27:47;12.60;99.90
15143;DHT22;7672;50.834;6.286;2024-03-29T03:30:14;12.50;99.90
15143;DHT22;7672;50.834;6.286;2024-03-29T03:32:40;12.50;99.90
15143;DHT22;7672;50.834;6.286;2024-03-29T03:35:07;12.40;99.90
15143;DHT22;7672;50.834;6.286;2024-03-29T03:37:33;12.40;99.90
15143;DHT22;7672;50.834;6.286;2024-03-29T03:39:59;12.40;99.90
15143;DHT22;7672;50.834;6.286;2024-03-29T03:42:25;12.30;99.90
15143;DHT22;7672;50.834;6.286;2024-03-29T03:44:51;12.30;99.90
15143;DHT22;7672;50.834;6.286;2024-03-29T03:47:17;12.30;99.90
15143;DHT22;7672;50.834;6.286;2024-03-29T03:49:43;12.30;99.90
15143;DHT22;7672;50.834;6.286;2024-03-29T03:52:09;12.20;99.90
15143;DHT22;7672;50.834;6.286;2024-03-29T03:54:36;12.20;99.90
15143;DHT22;7672;50.834;6.286;2024-03-29T03:57:02;12.20;99.90
15143;DHT22;7672;50.834;6.286;2024-03-29T03:59:28;12.20;99.90
15143;DHT22;7672;50.834;6.286;2024-03-29T04:01:54;12.10;99.90
15143;DHT22;7672;50.834;6.286;2024-03-29T04:04:20;12.10;99.90
15143;DHT22;7672;50.834;6.286;2024-03-29T04:06:46;12.10;99.90
15143;DHT22;7672;50.834;6.286;2024-03-29T04:09:16;12.00;99.90
15143;DHT22;7672;50.834;6.286;2024-03-29T04:11:43;12.00;99.90
15143;DHT22;7672;50.834;6.286;2024-03-29T04:14:10;12.30;99.90
15143;DHT22;7672;50.834;6.286;2024-03-29T04:16:36;11.90;99.90
15143;DHT22;7672;50.834;6.286;2024-03-29T04:19:02;11.90;99.90
15143;DHT22;7672;50.834;6.286;2024-03-29T04:21:28;11.90;99.90
15143;DHT22;7672;50.834;6.286;2024-03-29T04:23:54;11.90;99.90
15143;DHT22;7672;50.834;6.286;2024-03-29T04:26:20;11.80;99.90
15143;DHT22;7672;50.834;6.286;2024-03-29T04:28:46;11.90;99.90
15143;DHT22;7672;50.834;6.286;2024-03-29T04:31:12;11.80;99.90
15143;DHT22;7672;50.834;6.286;2024-03-29T04:33:38;11.90;99.90
15143;DHT22;7672;50.834;6.286;2024-03-29T04:36:04;11.80;99.90
15143;DHT22;7672;50.834;6.286;2024-03-29T04:38:31;11.80;99.90
15143;DHT22;7672;50.834;6.286;2024-03-29T04:40:58;11.80;99.90
15143;DHT22;7672;50.834;6.286;2024-03-29T04:43:26;11.80;99.90
15143;DHT22;7672;50.834;6.286;2024-03-29T04:46:09;11.80;99.90
15143;DHT22;7672;50.834;6.286;2024-03-29T04:48:37;11.80;99.90
15143;DHT22;7672;50.834;6.286;2024-03-29T04:51:04;11.80;99.90
15143;DHT22;7672;50.834;6.286;2024-03-29T04:53:30;11.80;99.90
15143;DHT22;7672;50.834;6.286;2024-03-29T04:55:57;11.70;99.90
15143;DHT22;7672;50.834;6.286;2024-03-29T04:58:24;11.70;99.90
15143;DHT22;7672;50.834;6.286;2024-03-29T05:00:52;11.70;99.90
15143;DHT22;7672;50.834;6.286;2024-03-29T05:03:19;11.60;99.90
15143;DHT22;7672;50.834;6.286;2024-03-29T05:05:46;11.70;99.90
15143;DHT22;7672;50.834;6.286;2024-03-29T05:08:13;11.60;99.90
15143;DHT22;7672;50.834;6.286;2024-03-29T05:10:39;11.50;99.90
15143;DHT22;7672;50.834;6.286;2024-03-29T05:13:06;11.50;99.90
15143;DHT22;7672;50.834;6.286;2024-03-29T05:15:33;11.50;99.90
15143;DHT22;7672;50.834;6.286;2024-03-29T05:18:02;11.80;99.90
15143;DHT22;7672;50.834;6.286;2024-03-29T05:20:30;11.40;99.90
15143;DHT22;7672;50.834;6.286;2024-03-29T05:22:58;11.40;99.90
15143;DHT22;7672;50.834;6.286;2024-03-29T05:25:27;11.30;99.90
15143;DHT22;7672;50.834;6.286;2024-03-29T05:27:54;11.30;99.90
15143;DHT22;7672;50.834;6.286;2024-03-29T05:30:20;11.30;99.90
15143;DHT22;7672;50.834;6.286;2024-03-29T05:32:46;11.20;99.90
15143;DHT22;7672;50.834;6.286;2024-03-29T05:35:12;11.20;99.90
15143;DHT22;7672;50.834;6.286;2024-03-29T05:37:39;11.20;99.90
15143;DHT22;7672;50.834;6.286;2024-03-29T05:40:06;11.20;99.90
15143;DHT22;7672;50.834;6.286;2024-03-29T05:42:33;11.20;99.90
15143;DHT22;7672;50.834;6.286;2024-03-29T05:45:02;11.20;99.90
15143;DHT22;7672;50.834;6.286;2024-03-29T05:47:30;11.10;99.90
15143;DHT22;7672;50.834;6.286;2024-03-29T05:49:56;11.10;99.90
15143;DHT22;7672;50.834;6.286;2024-03-29T05:52:22;11.10;99.90
15143;DHT22;7672;50.834;6.286;2024-03-29T05:54:49;11.10;99.90
15143;DHT22;7672;50.834;6.286;2024-03-29T05:57:15;11.10;99.90
15143;DHT22;7672;50.834;6.286;2024-03-29T05:59:42;11.20;99.90
15143;DHT22;7672;50.834;6.286;2024-03-29T06:02:08;11.20;99.90
15143;DHT22;7672;50.834;6.286;2024-03-29T06:04:34;11.20;99.90
15143;DHT22;7672;50.834;6.286;2024-03-29T06:07:05;11.50;99.90
15143;DHT22;7672;50.834;6.286;2024-03-29T06:09:31;11.30;99.90
15143;DHT22;7672;50.834;6.286;2024-03-29T06:11:59;11.30;99.90
15143;DHT22;7672;50.834;6.286;2024-03-29T06:14:26;11.40;99.90
15143;DHT22;7672;50.834;6.286;2024-03-29T06:17:11;11.40;99.90
15143;DHT22;7672;50.834;6.286;2024-03-29T06:19:50;11.50;99.90
15143;DHT22;7672;50.834;6.286;2024-03-29T06:22:24;11.50;99.90
15143;DHT22;7672;50.834;6.286;2024-03-29T06:24:50;11.60;99.90
15143;DHT22;7672;50.834;6.286;2024-03-29T06:27:18;11.60;99.90
15143;DHT22;7672;50.834;6.286;2024-03-29T06:29:46;11.70;99.90
15143;DHT22;7672;50.834;6.286;2024-03-29T06:32:13;11.70;99.90
15143;DHT22;7672;50.834;6.286;2024-03-29T06:34:39;11.80;99.90
15143;DHT22;7672;50.834;6.286;2024-03-29T06:37:05;11.90;99.90
15143;DHT22;7672;50.834;6.286;2024-03-29T06:39:31;11.90;99.90
15143;DHT22;7672;50.834;6.286;2024-03-29T06:41:57;12.00;99.90
15143;DHT22;7672;50.834;6.286;2024-03-29T06:44:23;12.10;99.90
15143;DHT22;7672;50.834;6.286;2024-03-29T06:46:50;12.10;99.90
15143;DHT22;7672;50.834;6.286;2024-03-29T06:49:17;12.20;99.90
15143;DHT22;7672;50.834;6.286;2024-03-29T06:51:43;12.30;99.90
15143;DHT22;7672;50.834;6.286;2024-03-29T06:54:09;12.40;99.90
15143;DHT22;7672;50.834;6.286;2024-03-29T06:56:35;12.40;99.90
15143;DHT22;7672;50.834;6.286;2024-03-29T06:59:01;12.50;99.90
15143;DHT22;7672;50.834;6.286;2024-03-29T07:01:27;12.50;99.90
15143;DHT22;7672;50.834;6.286;2024-03-29T07:03:54;12.60;99.90
15143;DHT22;7672;50.834;6.286;2024-03-29T07:06:20;12.70;99.90
15143;DHT22;7672;50.834;6.286;2024-03-29T07:08:46;12.70;99.90
15143;DHT22;7672;50.834;6.286;2024-03-29T07:11:12;12.80;99.90
15143;DHT22;7672;50.834;6.286;2024-03-29T07:13:39;12.80;99.90
15143;DHT22;7672;50.834;6.286;2024-03-29T07:16:05;12.90;99.90
15143;DHT22;7672;50.834;6.286;2024-03-29T07:18:33;12.90;99.90
15143;DHT22;7672;50.834;6.286;2024-03-29T07:20:59;12.90;99.90
15143;DHT22;7672;50.834;6.286;2024-03-29T07:23:25;13.00;99.90
15143;DHT22;7672;50.834;6.286;2024-03-29T07:25:59;13.00;99.90
15143;DHT22;7672;50.834;6.286;2024-03-29T07:28:26;13.10;99.90
15143;DHT22;7672;50.834;6.286;2024-03-29T07:30:53;13.10;99.90
15143;DHT22;7672;50.834;6.286;2024-03-29T07:33:23;13.20;99.90
15143;DHT22;7672;50.834;6.286;2024-03-29T07:36:35;13.20;99.90
15143;DHT22;7672;50.834;6.286;2024-03-29T07:40:12;13.20;99.90
15143;DHT22;7672;50.834;6.286;2024-03-29T07:42:43;13.30;99.90
15143;DHT22;7672;50.834;6.286;2024-03-29T07:45:09;13.40;99.90
15143;DHT22;7672;50.834;6.286;2024-03-29T07:47:35;13.40;99.90
15143;DHT22;7672;50.834;6.286;2024-03-29T07:50:02;13.40;99.90
15143;DHT22;7672;50.834;6.286;2024-03-29T07:52:29;13.50;99.90
15143;DHT22;7672;50.834;6.286;2024-03-29T07:54:59;13.60;99.90
15143;DHT22;7672;50.834;6.286;2024-03-29T07:57:25;13.70;99.90
15143;DHT22;7672;50.834;6.286;2024-03-29T07:59:53;13.70;99.90
15143;DHT22;7672;50.834;6.286;2024-03-29T08:02:19;13.80;99.90
15143;DHT22;7672;50.834;6.286;2024-03-29T08:04:45;13.90;99.90
15143;DHT22;7672;50.834;6.286;2024-03-29T08:07:11;14.10;99.90
15143;DHT22;7672;50.834;6.286;2024-03-29T08:09:38;14.20;99.90
15143;DHT22;7672;50.834;6.286;2024-03-29T08:12:07;14.30;99.90
15143;DHT22;7672;50.834;6.286;2024-03-29T08:14:33;14.40;99.90
15143;DHT22;7672;50.834;6.286;2024-03-29T08:16:59;14.50;99.90
15143;DHT22;7672;50.834;6.286;2024-03-29T08:19:30;14.60;99.90
15143;DHT22;7672;50.834;6.286;2024-03-29T08:21:56;14.70;99.90
15143;DHT22;7672;50.834;6.286;2024-03-29T08:24:22;14.80;99.90
15143;DHT22;7672;50.834;6.286;2024-03-29T08:26:48;14.90;99.90
15143;DHT22;7672;50.834;6.286;2024-03-29T08:29:14;15.10;99.90
15143;DHT22;7672;50.834;6.286;2024-03-29T08:31:40;15.30;99.90
15143;DHT22;7672;50.834;6.286;2024-03-29T08:34:06;15.40;99.90
15143;DHT22;7672;50.834;6.286;2024-03-29T08:36:33;15.60;99.90
15143;DHT22;7672;50.834;6.286;2024-03-29T08:38:59;15.80;99.90
15143;DHT22;7672;50.834;6.286;2024-03-29T08:41:25;15.90;99.90
15143;DHT22;7672;50.834;6.286;2024-03-29T08:43:51;16.10;99.90
15143;DHT22;7672;50.834;6.286;2024-03-29T08:46:17;16.20;99.90
15143;DHT22;7672;50.834;6.286;2024-03-29T08:48:43;16.30;99.90
15143;DHT22;7672;50.834;6.286;2024-03-29T08:51:09;16.40;99.90
15143;DHT22;7672;50.834;6.286;2024-03-29T08:53:35;16.50;99.90
15143;DHT22;7672;50.834;6.286;2024-03-29T08:56:01;16.60;99.90
15143;DHT22;7672;50.834;6.286;2024-03-29T08:58:28;16.70;99.90
15143;DHT22;7672;50.834;6.286;2024-03-29T09:00:55;16.80;99.90
15143;DHT22;7672;50.834;6.286;2024-03-29T09:03:22;16.90;99.90
15143;DHT22;7672;50.834;6.286;2024-03-29T09:05:49;17.10;99.90
15143;DHT22;7672;50.834;6.286;2024-03-29T09:08:19;17.30;99.90
15143;DHT22;7672;50.834;6.286;2024-03-29T09:10:46;17.40;99.90
15143;DHT22;7672;50.834;6.286;2024-03-29T09:13:12;17.70;99.90
15143;DHT22;7672;50.834;6.286;2024-03-29T09:15:38;18.00;99.90
15143;DHT22;7672;50.834;6.286;2024-03-29T09:18:05;18.20;99.90
15143;DHT22;7672;50.834;6.286;2024-03-29T09:21:01;18.50;99.90
15143;DHT22;7672;50.834;6.286;2024-03-29T09:23:29;18.80;99.90
15143;DHT22;7672;50.834;6.286;2024-03-29T09:25:58;19.20;99.90
15143;DHT22;7672;50.834;6.286;2024-03-29T09:28:24;19.50;99.90
15143;DHT22;7672;50.834;6.286;2024-03-29T09:30:57;19.80;99.90
15143;DHT22;7672;50.834;6.286;2024-03-29T09:33:24;20.00;99.90
15143;DHT22;7672;50.834;6.286;2024-03-29T09:35:50;20.20;99.90
15143;DHT22;7672;50.834;6.286;2024-03-29T09:38:17;20.40;99.90
15143;DHT22;7672;50.834;6.286;2024-03-29T09:40:43;20.60;99.90
15143;DHT22;7672;50.834;6.286;2024-03-29T09:43:10;20.70;99.90
15143;DHT22;7672;50.834;6.286;2024-03-29T09:45:39;20.80;99.90
15143;DHT22;7672;50.834;6.286;2024-03-29T09:48:07;20.90;99.90
15143;DHT22;7672;50.834;6.286;2024-03-29T09:50:37;21.10;99.90
15143;DHT22;7672;50.834;6.286;2024-03-29T09:53:05;21.30;99.90
15143;DHT22;7672;50.834;6.286;2024-03-29T09:55:31;21.40;99.90
15143;DHT22;7672;50.834;6.286;2024-03-29T09:57:57;21.50;99.90
15143;DHT22;7672;50.834;6.286;2024-03-29T10:00:24;21.60;99.90
15143;DHT22;7672;50.834;6.286;2024-03-29T10:02:55;21.60;99.90
15143;DHT22;7672;50.834;6.286;2024-03-29T10:05:23;21.50;99.90
15143;DHT22;7672;50.834;6.286;2024-03-29T10:07:51;21.40;99.90
15143;DHT22;7672;50.834;6.286;2024-03-29T10:10:17;21.30;99.90
15143;DHT22;7672;50.834;6.286;2024-03-29T10:12:43;21.30;99.90
15143;DHT22;7672;50.834;6.286;2024-03-29T10:15:10;21.20;99.90
15143;DHT22;7672;50.834;6.286;2024-03-29T10:17:47;21.10;99.90
15143;DHT22;7672;50.834;6.286;2024-03-29T10:20:17;21.10;99.90
15143;DHT22;7672;50.834;6.286;2024-03-29T10:22:45;21.00;99.90
15143;DHT22;7672;50.834;6.286;2024-03-29T10:25:15;20.90;99.90
15143;DHT22;7672;50.834;6.286;2024-03-29T10:27:42;20.80;99.90
15143;DHT22;7672;50.834;6.286;2024-03-29T10:30:10;20.80;99.90
15143;DHT22;7672;50.834;6.286;2024-03-29T10:32:40;20.70;99.90
15143;DHT22;7672;50.834;6.286;2024-03-29T10:35:07;20.80;99.90
15143;DHT22;7672;50.834;6.286;2024-03-29T10:37:35;20.60;99.90
15143;DHT22;7672;50.834;6.286;2024-03-29T10:40:08;20.60;99.90
15143;DHT22;7672;50.834;6.286;2024-03-29T10:42:36;20.60;99.90
15143;DHT22;7672;50.834;6.286;2024-03-29T10:45:06;20.70;99.90
15143;DHT22;7672;50.834;6.286;2024-03-29T10:47:33;20.80;99.90
15143;DHT22;7672;50.834;6.286;2024-03-29T10:49:59;20.90;99.90
15143;DHT22;7672;50.834;6.286;2024-03-29T10:52:26;21.00;99.90
15143;DHT22;7672;50.834;6.286;2024-03-29T10:54:53;21.20;99.90
15143;DHT22;7672;50.834;6.286;2024-03-29T10:57:25;21.20;99.90
15143;DHT22;7672;50.834;6.286;2024-03-29T11:02:50;21.40;99.90
15143;DHT22;7672;50.834;6.286;2024-03-29T11:05:50;21.50;99.90
15143;DHT22;7672;50.834;6.286;2024-03-29T11:08:21;21.70;99.90
15143;DHT22;7672;50.834;6.286;2024-03-29T11:10:50;21.80;99.90
15143;DHT22;7672;50.834;6.286;2024-03-29T11:16:19;22.00;99.90
15143;DHT22;7672;50.834;6.286;2024-03-29T11:18:46;22.00;99.90
15143;DHT22;7672;50.834;6.286;2024-03-29T11:21:15;22.10;99.90
15143;DHT22;7672;50.834;6.286;2024-03-29T11:23:49;22.10;99.90
15143;DHT22;7672;50.834;6.286;2024-03-29T11:26:17;22.10;99.90
15143;DHT22;7672;50.834;6.286;2024-03-29T11:28:49;22.20;99.90
15143;DHT22;7672;50.834;6.286;2024-03-29T11:31:16;22.20;99.90
15143;DHT22;7672;50.834;6.286;2024-03-29T11:36:21;22.30;99.90
15143;DHT22;7672;50.834;6.286;2024-03-29T11:38:55;22.40;99.90
15143;DHT22;7672;50.834;6.286;2024-03-29T11:41:26;22.60;99.90
15143;DHT22;7672;50.834;6.286;2024-03-29T11:43:55;22.60;99.90
15143;DHT22;7672;50.834;6.286;2024-03-29T11:46:23;22.60;99.90
15143;DHT22;7672;50.834;6.286;2024-03-29T11:48:50;22.70;99.90
15143;DHT22;7672;50.834;6.286;2024-03-29T11:51:21;22.80;99.90
15143;DHT22;7672;50.834;6.286;2024-03-29T11:53:50;22.80;99.90
15143;DHT22;7672;50.834;6.286;2024-03-29T11:56:18;22.80;99.90
15143;DHT22;7672;50.834;6.286;2024-03-29T11:58:46;22.80;99.90
15143;DHT22;7672;50.834;6.286;2024-03-29T12:01:14;22.70;99.90
15143;DHT22;7672;50.834;6.286;2024-03-29T12:03:42;22.50;99.90
15143;DHT22;7672;50.834;6.286;2024-03-29T12:06:10;22.40;99.90
15143;DHT22;7672;50.834;6.286;2024-03-29T12:08:38;22.20;99.90
15143;DHT22;7672;50.834;6.286;2024-03-29T12:11:05;22.00;99.90
15143;DHT22;7672;50.834;6.286;2024-03-29T12:13:32;21.90;99.90
15143;DHT22;7672;50.834;6.286;2024-03-29T12:15:59;21.70;99.90
15143;DHT22;7672;50.834;6.286;2024-03-29T12:18:27;21.60;99.90
15143;DHT22;7672;50.834;6.286;2024-03-29T12:20:59;21.40;99.90
15143;DHT22;7672;50.834;6.286;2024-03-29T12:23:26;21.30;99.90
15143;DHT22;7672;50.834;6.286;2024-03-29T12:25:57;21.10;99.90
15143;DHT22;7672;50.834;6.286;2024-03-29T12:28:25;21.00;99.90
15143;DHT22;7672;50.834;6.286;2024-03-29T12:30:51;20.90;99.90
15143;DHT22;7672;50.834;6.286;2024-03-29T12:33:22;20.70;99.90
15143;DHT22;7672;50.834;6.286;2024-03-29T12:35:50;20.60;99.90
15143;DHT22;7672;50.834;6.286;2024-03-29T12:38:20;20.40;99.90
15143;DHT22;7672;50.834;6.286;2024-03-29T12:40:49;20.20;99.90
15143;DHT22;7672;50.834;6.286;2024-03-29T12:43:21;20.20;99.90
15143;DHT22;7672;50.834;6.286;2024-03-29T12:45:49;20.00;99.90
15143;DHT22;7672;50.834;6.286;2024-03-29T12:48:18;20.00;99.90
15143;DHT22;7672;50.834;6.286;2024-03-29T12:50:47;20.00;99.90
15143;DHT22;7672;50.834;6.286;2024-03-29T12:53:14;20.00;99.90
15143;DHT22;7672;50.834;6.286;2024-03-29T12:55:43;19.90;99.90
15143;DHT22;7672;50.834;6.286;2024-03-29T12:58:12;19.90;99.90
15143;DHT22;7672;50.834;6.286;2024-03-29T13:00:40;20.10;99.90
15143;DHT22;7672;50.834;6.286;2024-03-29T13:03:07;20.10;99.90
15143;DHT22;7672;50.834;6.286;2024-03-29T13:05:39;20.20;99.90
15143;DHT22;7672;50.834;6.286;2024-03-29T13:08:10;20.30;99.90
15143;DHT22;7672;50.834;6.286;2024-03-29T13:10:41;20.40;99.90
15143;DHT22;7672;50.834;6.286;2024-03-29T13:13:08;20.60;99.90
15143;DHT22;7672;50.834;6.286;2024-03-29T13:15:36;20.60;99.90
15143;DHT22;7672;50.834;6.286;2024-03-29T13:18:04;20.70;99.90
15143;DHT22;7672;50.834;6.286;2024-03-29T13:20:32;20.70;99.90
15143;DHT22;7672;50.834;6.286;2024-03-29T13:23:08;20.80;99.90
15143;DHT22;7672;50.834;6.286;2024-03-29T13:25:35;20.80;99.90
15143;DHT22;7672;50.834;6.286;2024-03-29T13:28:01;20.80;99.90
15143;DHT22;7672;50.834;6.286;2024-03-29T13:30:27;20.80;99.90
15143;DHT22;7672;50.834;6.286;2024-03-29T13:32:54;20.80;99.90
15143;DHT22;7672;50.834;6.286;2024-03-29T13:35:21;20.80;99.90
15143;DHT22;7672;50.834;6.286;2024-03-29T13:37:49;20.80;99.90
15143;DHT22;7672;50.834;6.286;2024-03-29T13:40:20;20.80;99.90
15143;DHT22;7672;50.834;6.286;2024-03-29T13:42:47;20.90;99.90
15143;DHT22;7672;50.834;6.286;2024-03-29T13:45:14;20.90;99.90
15143;DHT22;7672;50.834;6.286;2024-03-29T13:47:42;20.90;99.90
15143;DHT22;7672;50.834;6.286;2024-03-29T13:50:11;20.90;99.90
15143;DHT22;7672;50.834;6.286;2024-03-29T13:52:37;20.90;99.90
15143;DHT22;7672;50.834;6.286;2024-03-29T13:55:04;21.00;99.90
15143;DHT22;7672;50.834;6.286;2024-03-29T13:57:31;21.00;99.90
15143;DHT22;7672;50.834;6.286;2024-03-29T13:59:58;21.00;99.90
15143;DHT22;7672;50.834;6.286;2024-03-29T14:02:25;21.10;99.90
15143;DHT22;7672;50.834;6.286;2024-03-29T14:04:54;21.20;99.90
15143;DHT22;7672;50.834;6.286;2024-03-29T14:07:20;21.20;99.90
15143;DHT22;7672;50.834;6.286;2024-03-29T14:09:50;21.30;99.90
15143;DHT22;7672;50.834;6.286;2024-03-29T14:12:17;21.30;99.90
15143;DHT22;7672;50.834;6.286;2024-03-29T14:14:44;21.30;99.90
15143;DHT22;7672;50.834;6.286;2024-03-29T14:17:14;21.40;99.90
15143;DHT22;7672;50.834;6.286;2024-03-29T14:19:40;21.30;99.90
15143;DHT22;7672;50.834;6.286;2024-03-29T14:22:07;21.30;99.90
15143;DHT22;7672;50.834;6.286;2024-03-29T14:24:34;21.30;99.90
15143;DHT22;7672;50.834;6.286;2024-03-29T14:27:03;21.20;99.90
15143;DHT22;7672;50.834;6.286;2024-03-29T14:29:31;21.40;99.90
15143;DHT22;7672;50.834;6.286;2024-03-29T14:32:01;21.30;99.90
15143;DHT22;7672;50.834;6.286;2024-03-29T14:34:28;21.30;99.90
15143;DHT22;7672;50.834;6.286;2024-03-29T14:36:58;21.30;99.90
15143;DHT22;7672;50.834;6.286;2024-03-29T14:39:24;21.20;99.90
15143;DHT22;7672;50.834;6.286;2024-03-29T14:41:51;21.10;99.90
15143;DHT22;7672;50.834;6.286;2024-03-29T14:44:18;21.10;99.90
15143;DHT22;7672;50.834;6.286;2024-03-29T14:46:47;21.00;99.90
15143;DHT22;7672;50.834;6.286;2024-03-29T14:49:13;20.90;99.90
15143;DHT22;7672;50.834;6.286;2024-03-29T14:51:40;20.80;99.90
15143;DHT22;7672;50.834;6.286;2024-03-29T14:54:07;20.80;99.90
15143;DHT22;7672;50.834;6.286;2024-03-29T14:56:33;20.70;99.90
15143;DHT22;7672;50.834;6.286;2024-03-29T14:59:05;20.60;99.90
15143;DHT22;7672;50.834;6.286;2024-03-29T15:01:32;20.50;99.90
15143;DHT22;7672;50.834;6.286;2024-03-29T15:03:58;20.50;99.90
15143;DHT22;7672;50.834;6.286;2024-03-29T15:06:25;20.50;99.90
15143;DHT22;7672;50.834;6.286;2024-03-29T15:08:53;20.40;99.90
15143;DHT22;7672;50.834;6.286;2024-03-29T15:11:20;20.40;99.90
15143;DHT22;7672;50.834;6.286;2024-03-29T15:13:48;20.30;99.90
15143;DHT22;7672;50.834;6.286;2024-03-29T15:16:16;20.30;99.90
15143;DHT22;7672;50.834;6.286;2024-03-29T15:18:43;20.30;99.90
15143;DHT22;7672;50.834;6.286;2024-03-29T15:21:10;20.20;99.90
15143;DHT22;7672;50.834;6.286;2024-03-29T15:23:37;20.20;99.90
15143;DHT22;7672;50.834;6.286;2024-03-29T15:26:03;20.20;99.90
15143;DHT22;7672;50.834;6.286;2024-03-29T15:28:30;20.10;99.90
15143;DHT22;7672;50.834;6.286;2024-03-29T15:31:16;20.30;99.90
15143;DHT22;7672;50.834;6.286;2024-03-29T15:33:46;20.00;99.90
15143;DHT22;7672;50.834;6.286;2024-03-29T15:36:16;20.00;99.90
15143;DHT22;7672;50.834;6.286;2024-03-29T15:38:42;19.90;99.90
15143;DHT22;7672;50.834;6.286;2024-03-29T15:41:08;19.80;99.90
15143;DHT22;7672;50.834;6.286;2024-03-29T15:43:35;19.80;99.90
15143;DHT22;7672;50.834;6.286;2024-03-29T15:46:04;19.70;99.90
15143;DHT22;7672;50.834;6.286;2024-03-29T15:48:31;19.70;99.90
15143;DHT22;7672;50.834;6.286;2024-03-29T15:50:57;19.60;99.90
15143;DHT22;7672;50.834;6.286;2024-03-29T15:53:23;19.50;99.90
15143;DHT22;7672;50.834;6.286;2024-03-29T15:55:49;19.50;99.90
15143;DHT22;7672;50.834;6.286;2024-03-29T15:58:16;19.40;99.90